Time;durP1;ratioP1;P1;durP2;ratioP2;P2;SDS_P1;SDS_P2;PMS_P1;PMS_P2;Temp;Humidity;BMP_temperature;BMP_pressure;BME280_temperature;BME280_humidity;BME280_pressure;Samples;Min_cycle;Max_cycle;Signal;HPM_P1;HPM_P2
2021/10/02 04:08:30;;;;;;;3.38;2.55;;;15.40;99.90;;;;;;2584407;46;20148;-80
2021/10/02 04:11:03;;;;;;;3.53;3.22;;;13.60;99.90;;;;;;2632889;47;20152;-83
2021/10/02 04:16:01;;;;;;;5.40;2.77;;;13.50;99.90;;;;;;2590594;54;20616;31
2021/10/02 04:21:12;;;;;;;2.00;1.90;;;13.50;99.90;;;;;;2587631;54;21226;31
2021/10/02 04:31:47;;;;;;;4.65;2.58;;;13.60;99.90;;;;;;2632982;54;20168;-82
2021/10/02 04:34:16;;;;;;;2.33;2.13;;;13.50;99.90;;;;;;2621257;54;20197;-79
2021/10/02 04:42:22;;;;;;;2.40;2.20;;;13.60;99.90;;;;;;2596672;39;20803;31
2021/10/02 04:44:53;;;;;;;2.42;2.22;;;13.70;99.90;;;;;;2591190;47;20189;31
2021/10/02 04:52:50;;;;;;;3.72;2.53;;;13.50;99.90;;;;;;2626188;54;20216;-81
2021/10/02 04:55:21;;;;;;;5.17;3.70;;;13.50;99.90;;;;;;2597113;39;21726;31
2021/10/02 05:00:21;;;;;;;3.07;2.57;;;13.60;99.90;;;;;;2590594;47;21764;31
2021/10/02 05:05:31;;;;;;;2.20;2.00;;;13.50;99.90;;;;;;2583347;54;21523;31
2021/10/02 05:10:46;;;;;;;2.85;2.55;;;13.50;99.90;;;;;;2583752;54;20184;31
2021/10/02 05:15:43;;;;;;;3.05;2.83;;;13.50;99.90;;;;;;2587277;47;21569;31
2021/10/02 05:18:14;;;;;;;6.93;3.03;;;13.50;99.90;;;;;;2583640;47;21035;31
2021/10/02 05:23:19;;;;;;;2.73;1.97;;;13.70;99.90;;;;;;2655820;39;21259;31
2021/10/02 05:28:41;;;;;;;7.05;5.43;;;13.60;99.90;;;;;;2629171;54;20264;-82
2021/10/02 05:36:20;;;;;;;2.47;2.27;;;13.50;99.90;;;;;;2598599;54;20261;31
2021/10/02 05:38:52;;;;;;;2.50;2.10;;;13.60;99.90;;;;;;2624445;54;21426;31
2021/10/02 05:51:53;;;;;;;3.53;2.60;;;13.60;99.90;;;;;;2583303;54;21157;31
2021/10/02 05:57:14;;;;;;;2.53;2.28;;;13.50;99.90;;;;;;2583124;54;20247;31
2021/10/02 06:02:16;;;;;;;2.10;1.98;;;13.50;99.90;;;;;;2632735;54;20137;-86
2021/10/02 06:04:49;;;;;;;3.20;2.23;;;13.50;99.90;;;;;;2583608;54;21472;31
2021/10/02 06:07:18;;;;;;;3.50;2.47;;;13.60;99.90;;;;;;2611429;54;20470;-81
2021/10/02 06:09:47;;;;;;;2.35;2.15;;;13.70;99.90;;;;;;2645992;39;20351;-79
2021/10/02 06:12:19;;;;;;;4.10;2.22;;;13.60;99.90;;;;;;2630876;54;20200;-78
2021/10/02 06:14:47;;;;;;;2.70;2.42;;;13.50;99.90;;;;;;2630761;47;20155;-79
2021/10/02 06:17:16;;;;;;;3.97;2.67;;;13.60;99.90;;;;;;2630611;46;20185;-80
2021/10/02 06:19:46;;;;;;;4.68;2.60;;;13.60;99.90;;;;;;2630453;46;20168;31
2021/10/02 06:22:15;;;;;;;3.03;1.80;;;13.60;99.90;;;;;;2608002;54;20204;-76
2021/10/02 06:24:44;;;;;;;5.00;3.90;;;13.60;99.90;;;;;;2619337;54;20205;-75
2021/10/02 06:30:07;;;;;;;2.43;2.10;;;13.70;99.90;;;;;;2600128;39;20498;31
2021/10/02 06:32:37;;;;;;;3.63;2.03;;;13.70;99.90;;;;;;2605961;46;20819;-78
2021/10/02 06:35:08;;;;;;;5.20;3.13;;;13.70;99.90;;;;;;2585094;47;20207;31
2021/10/02 06:37:39;;;;;;;2.38;2.17;;;13.90;99.90;;;;;;2628893;54;20159;31
2021/10/02 06:40:11;;;;;;;4.43;2.58;;;14.00;99.90;;;;;;2631480;46;20146;-74
2021/10/02 06:42:39;;;;;;;2.65;2.45;;;13.80;99.90;;;;;;2631414;47;20133;-74
2021/10/02 06:45:13;;;;;;;2.53;1.65;;;13.80;99.90;;;;;;2592327;46;21498;31
2021/10/02 06:47:42;;;;;;;2.70;2.45;;;13.80;99.90;;;;;;2607538;46;20192;-75
2021/10/02 06:50:11;;;;;;;4.95;3.15;;;13.80;99.90;;;;;;2631118;54;20176;-74
2021/10/02 06:52:40;;;;;;;3.03;2.67;;;14.00;99.90;;;;;;2630865;47;20155;-74
2021/10/02 06:55:10;;;;;;;3.30;2.70;;;14.00;99.90;;;;;;2629582;54;20216;-78
2021/10/02 06:57:39;;;;;;;4.60;2.80;;;14.10;99.90;;;;;;2627554;39;20507;-78
2021/10/02 07:00:09;;;;;;;2.67;2.30;;;14.10;99.90;;;;;;2630001;47;20203;-73
2021/10/02 07:02:45;;;;;;;3.55;2.85;;;14.10;99.90;;;;;;2627112;46;20164;-73
2021/10/02 07:05:16;;;;;;;5.32;3.10;;;13.90;99.90;;;;;;2626594;47;20136;-74
2021/10/02 07:07:45;;;;;;;2.95;2.50;;;13.90;99.90;;;;;;2626506;54;20156;-73
2021/10/02 07:10:15;;;;;;;6.20;2.72;;;14.00;99.90;;;;;;2629224;47;20184;-74
2021/10/02 07:12:43;;;;;;;2.20;2.10;;;14.20;99.90;;;;;;2629255;54;20745;-79
2021/10/02 07:15:13;;;;;;;5.50;2.78;;;14.50;99.90;;;;;;2631039;47;20291;-81
2021/10/02 07:17:45;;;;;;;2.33;1.95;;;14.60;99.90;;;;;;2631001;47;20157;-80
2021/10/02 07:20:16;;;;;;;4.95;2.38;;;14.50;99.90;;;;;;2630729;47;20820;-79
2021/10/02 07:22:46;;;;;;;3.53;2.20;;;14.50;99.90;;;;;;2629169;46;20216;-80
2021/10/02 07:25:16;;;;;;;2.15;1.95;;;14.50;99.90;;;;;;2631047;54;20137;-81
2021/10/02 07:27:46;;;;;;;5.05;2.10;;;14.50;99.90;;;;;;2630808;46;20685;-79
2021/10/02 07:30:16;;;;;;;4.18;2.60;;;14.40;99.90;;;;;;2631042;54;20138;-81
2021/10/02 07:32:47;;;;;;;4.15;2.03;;;14.30;99.90;;;;;;2630836;54;20173;-82
2021/10/02 07:35:20;;;;;;;3.10;2.35;;;14.20;99.90;;;;;;2622999;47;20200;-79
2021/10/02 07:40:19;;;;;;;2.40;2.20;;;14.30;99.90;;;;;;2623846;54;20204;-79
2021/10/02 07:42:55;;;;;;;2.22;2.10;;;14.40;99.90;;;;;;2629888;47;20204;-79
2021/10/02 07:45:26;;;;;;;2.75;2.20;;;14.50;99.90;;;;;;2630792;54;20137;-82
2021/10/02 07:47:58;;;;;;;2.53;2.28;;;14.60;99.90;;;;;;2630661;47;20167;-79
2021/10/02 07:50:27;;;;;;;4.20;2.35;;;14.70;99.90;;;;;;2629116;54;20201;-81
2021/10/02 07:52:58;;;;;;;2.65;2.35;;;14.80;99.90;;;;;;2627446;54;20203;-81
2021/10/02 07:57:59;;;;;;;2.92;1.70;;;14.90;99.90;;;;;;2630681;54;20137;-78
2021/10/02 08:00:28;;;;;;;2.67;2.20;;;14.70;99.90;;;;;;2627759;54;20287;-83
2021/10/02 08:02:59;;;;;;;2.40;2.20;;;14.80;99.90;;;;;;2630069;54;20204;-81
2021/10/02 08:05:28;;;;;;;3.47;2.50;;;14.80;99.90;;;;;;2630336;47;20161;-80
2021/10/02 08:10:43;;;;;;;2.58;2.20;;;14.90;99.90;;;;;;2630370;54;20812;-81
2021/10/02 08:13:14;;;;;;;4.10;2.58;;;14.90;99.90;;;;;;2630621;47;20172;-82
2021/10/02 08:15:44;;;;;;;3.00;2.58;;;14.90;99.90;;;;;;2630872;47;20149;-81
2021/10/02 08:18:18;;;;;;;2.92;1.90;;;14.90;99.90;;;;;;2625567;47;20227;-80
2021/10/02 08:20:57;;;;;;;5.70;2.33;;;15.00;99.90;;;;;;2630271;47;20216;-82
2021/10/02 08:23:27;;;;;;;3.13;2.17;;;14.80;99.90;;;;;;2630615;54;20169;-79
2021/10/02 08:25:57;;;;;;;2.72;1.75;;;15.10;99.90;;;;;;2635346;39;20765;-79
2021/10/02 08:28:27;;;;;;;3.58;2.17;;;15.10;99.90;;;;;;2630798;54;20133;-80
2021/10/02 08:30:57;;;;;;;3.00;2.72;;;15.20;99.90;;;;;;2630225;47;20178;-79
2021/10/02 08:33:28;;;;;;;3.25;2.40;;;15.30;99.90;;;;;;2626609;47;20188;-76
2021/10/02 08:35:57;;;;;;;8.93;2.80;;;15.40;99.90;;;;;;2629271;47;20197;-81
2021/10/02 08:38:26;;;;;;;3.70;2.20;;;15.50;99.90;;;;;;2630290;47;20157;-81
2021/10/02 08:40:57;;;;;;;3.47;2.60;;;15.60;99.90;;;;;;2630571;54;20157;-79
2021/10/02 08:43:26;;;;;;;2.72;2.17;;;15.80;99.90;;;;;;2630151;47;20161;-75
2021/10/02 08:45:55;;;;;;;3.78;2.78;;;15.60;99.90;;;;;;2630125;47;20820;-75
2021/10/02 08:48:24;;;;;;;3.33;2.35;;;15.50;99.90;;;;;;2629810;47;20137;-75
2021/10/02 08:50:58;;;;;;;2.55;2.35;;;15.40;99.90;;;;;;2631146;47;20140;-75
2021/10/02 08:53:31;;;;;;;2.28;2.10;;;15.50;99.90;;;;;;2630443;54;20125;-76
2021/10/02 08:56:01;;;;;;;3.40;2.35;;;15.80;99.90;;;;;;2630662;54;20141;-76
2021/10/02 08:58:30;;;;;;;3.20;1.92;;;15.80;99.90;;;;;;2629785;46;20151;-77
2021/10/02 09:01:00;;;;;;;2.63;2.03;;;15.90;99.90;;;;;;2628257;54;20149;-77
2021/10/02 09:03:29;;;;;;;5.65;2.35;;;;;;;;;;2629913;54;20162;-79
2021/10/02 09:06:01;;;;;;;4.50;2.67;;;;;;;;;;2630445;54;20177;-79
2021/10/02 09:08:30;;;;;;;2.95;2.28;;;;;;;;;;2630399;54;20189;-77
2021/10/02 09:11:00;;;;;;;5.03;2.78;;;;;;;;;;2624981;46;20327;-64
2021/10/02 09:13:29;;;;;;;2.97;2.65;;;;;;;;;;2617493;54;20157;-64
2021/10/02 09:15:58;;;;;;;6.50;2.20;;;;;;;;;;2617693;54;20165;-60
2021/10/02 09:18:27;;;;;;;3.15;2.30;;;;;;;;;;2617592;54;20196;-64
2021/10/02 09:21:08;;;;;;;3.88;2.42;;;;;;;;;;2618064;54;20149;-60
